BIENTÔT MET'MAP
version 2.0 !

Prévue avant fin octobre,
la nouvelle version sera
plus belle, plus complète
et hébergée sur un serveur
3 fois plus puissant...
et toujours gratuite !


Pas compatible ?
Essayez la version Mobile !

SE CONNECTER : | S'inscrire | Disclaimer | Découvrir Orbifly |
Code OACI :
LŽgende : VFR VFR Marginal IFR IFR Intensif IFR TrŽs Intensif
Visi :
Plafond :
>= 8 km
>= 3000ft
5 ˆ 8 km
1000 ˆ 3000 ft
1500m ˆ 5 km
500 ˆ 1000 ft
800 ˆ 1500m
200 ˆ 500 ft
< 800m
< 200 ft

METAR - EDDK Cologne Bonn - 17 Sep 2019 06:54 UTC
Data Sources :     NOAA   



- Altitude de l'aérodrome : 302 ft
- Code IATA : CGN
- Pas de NOTAMs connus.


EDDK - Cologne Bonn

Dernier METAR connu : 2015/08/11 07:50 EDDK 110750Z VRB01KT 2700 BR BKN002 OVC003 16/15 Q1018 BECMG 4000 SCT003
TAF AMD TAF EDDK
Valide du 17 à 04h jusqu'au 18 à 06h UTC


170426Z 1704/1806 32004KT 9999 BKN030
TEMPO 1704/1706 4500 BR BKN008
BECMG 1708/1711 31012KT
TEMPO 1712/1716 32015G25KT
BECMG 1717/1720 33006KT
BECMG 1721/1724 VRB03KT

Source NOAA


MET'MAP, la Météo Aéronautique d'un coup d'oeil ! - Copyright ORBIFLY Décembre 2007

Développement & Programmation : Alexandra Zaïnal
Co-Développement : Marc-Olivier Méhu
Soutien technique & logistique : Manuel Goepfert
Conception & Financement : Baudouin d'Aumeries